Time,TemperatureF,DewpointF,PressureIn,WindDirection,WindDirectionDegrees,WindSpeedMPH,WindSpeedGustMPH,Humidity,HourlyPrecipIn,Conditions,Clouds,dailyrainin,SoftwareType,DateUTC
2013-03-06 00:06:00,29.1,4.0,30.12,South,171,0.0,7.0,34,0.00,,,0.00,weatherlink.com 1.10,2013-03-06 07:06:00,
2013-03-06 00:21:00,29.4,3.0,30.12,SSW,207,0.0,5.0,33,0.00,,,0.00,weatherlink.com 1.10,2013-03-06 07:21:00,
2013-03-06 00:36:00,28.8,3.0,30.12,SSW,207,0.0,0.0,33,0.00,,,0.00,weatherlink.com 1.10,2013-03-06 07:36:00,
2013-03-06 00:51:00,27.7,3.0,30.12,SSW,198,0.0,0.0,35,0.00,,,0.00,weatherlink.com 1.10,2013-03-06 07:51:00,
2013-03-06 01:07:00,26.5,3.0,30.12,SSW,198,0.0,0.0,36,0.00,,,0.00,weatherlink.com 1.10,2013-03-06 08:07:00,
2013-03-06 01:22:00,25.3,2.0,30.11,SSW,196,0.0,0.0,37,0.00,,,0.00,weatherlink.com 1.10,2013-03-06 08:22:00,
2013-03-06 01:37:00,25.3,2.0,30.10,South,180,0.0,1.0,37,0.00,,,0.00,weatherlink.com 1.10,2013-03-06 08:37:00,
2013-03-06 01:52:00,25.9,1.0,30.09,South,186,0.0,3.0,34,0.00,,,0.00,weatherlink.com 1.10,2013-03-06 08:52:00,
2013-03-06 02:07:00,29.3,1.0,30.09,South,183,0.0,7.0,30,0.00,,,0.00,weatherlink.com 1.10,2013-03-06 09:07:00,
2013-03-06 02:22:00,30.2,1.0,30.09,SW,221,0.0,2.0,28,0.00,,,0.00,weatherlink.com 1.10,2013-03-06 09:22:00,
2013-03-06 02:37:00,29.7,2.0,30.09,SSW,196,0.0,6.0,30,0.00,,,0.00,weatherlink.com 1.10,2013-03-06 09:37:00,
2013-03-06 02:52:00,29.4,2.0,30.08,South,187,0.0,2.0,31,0.00,,,0.00,weatherlink.com 1.10,2013-03-06 09:52:00,
2013-03-06 03:07:00,28.8,2.0,30.07,South,179,0.0,5.0,32,0.00,,,0.00,weatherlink.com 1.10,2013-03-06 10:07:00,
2013-03-06 03:22:00,28.3,2.0,30.06,SSE,167,0.0,3.0,33,0.00,,,0.00,weatherlink.com 1.10,2013-03-06 10:22:00,
2013-03-06 03:37:00,27.6,2.0,30.05,SSE,154,0.0,0.0,33,0.00,,,0.00,weatherlink.com 1.10,2013-03-06 10:37:00,
2013-03-06 03:52:00,27.0,2.0,30.04,SSE,154,0.0,0.0,34,0.00,,,0.00,weatherlink.com 1.10,2013-03-06 10:52:00,
2013-03-06 04:07:00,26.4,2.0,30.04,SSE,154,0.0,0.0,35,0.00,,,0.00,weatherlink.com 1.10,2013-03-06 11:07:00,
2013-03-06 04:22:00,25.9,2.0,30.04,SSE,154,0.0,0.0,36,0.00,,,0.00,weatherlink.com 1.10,2013-03-06 11:22:00,
2013-03-06 04:37:00,25.7,3.0,30.03,SSE,154,0.0,1.0,37,0.00,,,0.00,weatherlink.com 1.10,2013-03-06 11:37:00,
2013-03-06 04:52:00,25.8,2.0,30.03,SSE,154,0.0,0.0,36,0.00,,,0.00,weatherlink.com 1.10,2013-03-06 11:52:00,
2013-03-06 05:07:00,26.5,3.0,30.02,SE,146,0.0,2.0,36,0.00,,,0.00,weatherlink.com 1.10,2013-03-06 12:07:00,
2013-03-06 05:22:00,26.4,3.0,30.02,SE,146,0.0,0.0,36,0.00,,,0.00,weatherlink.com 1.10,2013-03-06 12:22:00,
2013-03-06 05:37:00,25.8,2.0,30.01,SE,146,0.0,0.0,36,0.00,,,0.00,weatherlink.com 1.10,2013-03-06 12:37:00,
2013-03-06 05:52:00,25.4,2.0,30.01,SE,146,0.0,0.0,36,0.00,,,0.00,weatherlink.com 1.10,2013-03-06 12:52:00,
2013-03-06 06:08:00,25.3,1.0,30.00,SE,146,0.0,0.0,35,0.00,,,0.00,weatherlink.com 1.10,2013-03-06 13:08:00,
2013-03-06 06:24:00,25.6,2.0,30.00,SE,143,0.0,3.0,36,0.00,,,0.00,weatherlink.com 1.10,2013-03-06 13:24:00,
2013-03-06 06:38:00,25.8,2.0,29.99,SE,141,0.0,1.0,36,0.00,,,0.00,weatherlink.com 1.10,2013-03-06 13:38:00,
2013-03-06 06:53:00,25.2,3.0,29.99,SE,143,0.0,1.0,38,0.00,,,0.00,weatherlink.com 1.10,2013-03-06 13:53:00,
2013-03-06 07:08:00,23.3,3.0,29.98,SE,143,0.0,0.0,41,0.00,,,0.00,weatherlink.com 1.10,2013-03-06 14:08:00,
2013-03-06 07:23:00,23.3,4.0,29.99,SE,144,0.0,1.0,44,0.00,,,0.00,weatherlink.com 1.10,2013-03-06 14:23:00,
2013-03-06 07:38:00,24.0,3.0,29.98,SE,143,0.0,2.0,40,0.00,,,0.00,weatherlink.com 1.10,2013-03-06 14:38:00,
2013-03-06 07:53:00,23.9,5.0,29.99,SE,143,0.0,0.0,45,0.00,,,0.00,weatherlink.com 1.10,2013-03-06 14:53:00,
2013-03-06 08:08:00,25.8,5.0,29.99,ESE,102,0.0,7.0,42,0.00,,,0.00,weatherlink.com 1.10,2013-03-06 15:08:00,
2013-03-06 08:23:00,28.4,7.0,29.98,South,176,6.0,7.0,40,0.00,,,0.00,weatherlink.com 1.10,2013-03-06 15:23:00,
2013-03-06 08:53:00,32.5,11.0,29.98,ESE,103,0.0,5.0,41,0.00,,,0.00,weatherlink.com 1.10,2013-03-06 15:53:00,
2013-03-06 09:09:00,35.3,13.0,29.98,ENE,67,1.0,7.0,40,0.00,,,0.00,weatherlink.com 1.10,2013-03-06 16:09:00,
2013-03-06 09:24:00,39.3,12.0,29.97,SSE,165,2.0,8.0,33,0.00,,,0.00,weatherlink.com 1.10,2013-03-06 16:24:00,
2013-03-06 09:39:00,40.9,14.0,29.97,South,175,0.0,8.0,34,0.00,,,0.00,weatherlink.com 1.10,2013-03-06 16:39:00,
2013-03-06 09:54:00,41.8,12.0,29.96,SW,220,5.0,10.0,30,0.00,,,0.00,weatherlink.com 1.10,2013-03-06 16:54:00,
2013-03-06 10:11:00,41.1,12.0,29.95,South,190,3.0,12.0,30,0.00,,,0.00,weatherlink.com 1.10,2013-03-06 17:11:00,
2013-03-06 10:24:00,41.6,12.0,29.94,SW,221,0.0,12.0,30,0.00,,,0.00,weatherlink.com 1.10,2013-03-06 17:24:00,
2013-03-06 10:39:00,41.6,12.0,29.94,South,182,0.0,15.0,30,0.00,,,0.00,weatherlink.com 1.10,2013-03-06 17:39:00,
2013-03-06 10:54:00,41.8,13.0,29.93,SSW,196,2.0,12.0,31,0.00,,,0.00,weatherlink.com 1.10,2013-03-06 17:54:00,
2013-03-06 11:09:00,42.5,13.0,29.93,SSW,205,0.0,14.0,30,0.00,,,0.00,weatherlink.com 1.10,2013-03-06 18:09:00,
2013-03-06 11:24:00,43.4,12.0,29.93,South,189,0.0,8.0,28,0.00,,,0.00,weatherlink.com 1.10,2013-03-06 18:24:00,
2013-03-06 11:54:00,44.4,14.0,29.92,South,180,0.0,7.0,29,0.00,,,0.00,weatherlink.com 1.10,2013-03-06 18:54:00,
2013-03-06 12:09:00,44.7,14.0,29.90,SE,140,1.0,8.0,29,0.00,,,0.00,weatherlink.com 1.10,2013-03-06 19:09:00,
2013-03-06 12:24:00,46.7,14.0,29.89,ESE,114,3.0,8.0,27,0.00,,,0.00,weatherlink.com 1.10,2013-03-06 19:24:00,
2013-03-06 12:39:00,47.4,15.0,29.89,SSE,154,4.0,11.0,27,0.00,,,0.00,weatherlink.com 1.10,2013-03-06 19:39:00,
2013-03-06 12:54:00,47.9,15.0,29.87,SW,224,12.0,12.0,27,0.00,,,0.00,weatherlink.com 1.10,2013-03-06 19:54:00,
2013-03-06 13:10:00,47.4,14.0,29.87,NNE,16,0.0,6.0,26,0.00,,,0.00,weatherlink.com 1.10,2013-03-06 20:10:00,
2013-03-06 13:25:00,47.2,18.0,29.86,East,95,6.0,8.0,31,0.00,,,0.00,weatherlink.com 1.10,2013-03-06 20:25:00,
2013-03-06 13:40:00,47.9,15.0,29.85,SW,215,3.0,9.0,27,0.00,,,0.00,weatherlink.com 1.10,2013-03-06 20:40:00,
2013-03-06 13:57:00,48.9,13.0,29.84,South,182,0.0,10.0,24,0.00,,,0.00,weatherlink.com 1.10,2013-03-06 20:57:00,
2013-03-06 14:10:00,48.7,14.0,29.84,SW,236,0.0,10.0,25,0.00,,,0.00,weatherlink.com 1.10,2013-03-06 21:10:00,
2013-03-06 14:25:00,48.1,15.0,29.83,West,275,0.0,9.0,26,0.00,,,0.00,weatherlink.com 1.10,2013-03-06 21:25:00,
2013-03-06 14:40:00,48.6,13.0,29.82,West,273,0.0,12.0,24,0.00,,,0.00,weatherlink.com 1.10,2013-03-06 21:40:00,
2013-03-06 14:55:00,48.3,15.0,29.81,SSE,162,1.0,14.0,26,0.00,,,0.00,weatherlink.com 1.10,2013-03-06 21:55:00,
2013-03-06 15:10:00,47.6,16.0,29.80,SSE,148,1.0,10.0,28,0.00,,,0.00,weatherlink.com 1.10,2013-03-06 22:10:00,
2013-03-06 15:25:00,47.3,15.0,29.80,South,178,0.0,11.0,27,0.00,,,0.00,weatherlink.com 1.10,2013-03-06 22:25:00,
2013-03-06 15:40:00,46.2,15.0,29.80,SE,133,2.0,11.0,28,0.00,,,0.00,weatherlink.com 1.10,2013-03-06 22:40:00,
2013-03-06 15:55:00,45.6,14.0,29.79,SSW,195,3.0,12.0,28,0.00,,,0.00,weatherlink.com 1.10,2013-03-06 22:55:00,
2013-03-06 16:10:00,45.6,15.0,29.79,WSW,244,0.0,11.0,29,0.00,,,0.00,weatherlink.com 1.10,2013-03-06 23:10:00,
2013-03-06 16:25:00,45.1,15.0,29.80,SE,125,2.0,13.0,30,0.00,,,0.00,weatherlink.com 1.10,2013-03-06 23:25:00,
2013-03-06 16:40:00,44.3,15.0,29.80,ESE,123,0.0,12.0,31,0.00,,,0.00,weatherlink.com 1.10,2013-03-06 23:40:00,
2013-03-06 16:55:00,43.3,12.0,29.80,SSW,201,2.0,13.0,28,0.00,,,0.00,weatherlink.com 1.10,2013-03-06 23:55:00,
2013-03-06 17:10:00,42.3,14.0,29.80,SSE,149,0.0,8.0,32,0.00,,,0.00,weatherlink.com 1.10,2013-03-07 00:10:00,
2013-03-06 17:25:00,41.4,13.0,29.80,SW,231,0.0,9.0,32,0.00,,,0.00,weatherlink.com 1.10,2013-03-07 00:25:00,
2013-03-06 17:40:00,41.8,11.0,29.80,SSW,195,2.0,15.0,28,0.00,,,0.00,weatherlink.com 1.10,2013-03-07 00:40:00,
2013-03-06 17:55:00,41.6,11.0,29.80,South,170,2.0,16.0,29,0.00,,,0.00,weatherlink.com 1.10,2013-03-07 00:55:00,
2013-03-06 18:10:00,40.8,11.0,29.80,South,176,6.0,8.0,30,0.00,,,0.00,weatherlink.com 1.10,2013-03-07 01:10:00,
2013-03-06 18:25:00,40.3,11.0,29.81,SSW,211,0.0,4.0,30,0.00,,,0.00,weatherlink.com 1.10,2013-03-07 01:25:00,
2013-03-06 18:40:00,39.8,11.0,29.82,SSE,149,0.0,6.0,31,0.00,,,0.00,weatherlink.com 1.10,2013-03-07 01:40:00,
2013-03-06 18:55:00,38.9,11.0,29.83,SSW,197,0.0,4.0,32,0.00,,,0.00,weatherlink.com 1.10,2013-03-07 01:55:00,
2013-03-06 19:11:00,38.2,12.0,29.83,SSE,162,0.0,3.0,34,0.00,,,0.00,weatherlink.com 1.10,2013-03-07 02:11:00,
2013-03-06 19:26:00,37.6,12.0,29.82,SSW,204,0.0,5.0,35,0.00,,,0.00,weatherlink.com 1.10,2013-03-07 02:26:00,
2013-03-06 19:41:00,37.6,11.0,29.82,SE,146,0.0,5.0,34,0.00,,,0.00,weatherlink.com 1.10,2013-03-07 02:41:00,
2013-03-06 19:56:00,37.3,11.0,29.82,South,178,0.0,6.0,34,0.00,,,0.00,weatherlink.com 1.10,2013-03-07 02:56:00,
2013-03-06 20:11:00,36.1,11.0,29.82,SE,146,0.0,6.0,35,0.00,,,0.00,weatherlink.com 1.10,2013-03-07 03:11:00,
2013-03-06 20:29:00,35.2,11.0,29.83,South,177,0.0,5.0,36,0.00,,,0.00,weatherlink.com 1.10,2013-03-07 03:29:00,
2013-03-06 20:41:00,34.7,10.0,29.83,South,175,0.0,3.0,36,0.00,,,0.00,weatherlink.com 1.10,2013-03-07 03:41:00,
2013-03-06 20:56:00,35.0,10.0,29.84,SSW,193,0.0,4.0,35,0.00,,,0.00,weatherlink.com 1.10,2013-03-07 03:56:00,
2013-03-06 21:11:00,34.9,10.0,29.84,South,189,0.0,7.0,36,0.00,,,0.00,weatherlink.com 1.10,2013-03-07 04:11:00,
2013-03-06 21:26:00,34.3,10.0,29.84,South,189,0.0,3.0,37,0.00,,,0.00,weatherlink.com 1.10,2013-03-07 04:26:00,
2013-03-06 21:41:00,34.4,10.0,29.84,WSW,250,0.0,4.0,36,0.00,,,0.00,weatherlink.com 1.10,2013-03-07 04:41:00,
2013-03-06 21:56:00,34.4,10.0,29.84,SSE,153,0.0,5.0,36,0.00,,,0.00,weatherlink.com 1.10,2013-03-07 04:56:00,
2013-03-06 22:11:00,34.5,11.0,29.83,SW,218,0.0,4.0,37,0.00,,,0.00,weatherlink.com 1.10,2013-03-07 05:11:00,
2013-03-06 22:26:00,34.1,10.0,29.83,West,264,0.0,7.0,37,0.00,,,0.00,weatherlink.com 1.10,2013-03-07 05:26:00,
2013-03-06 22:41:00,34.3,10.0,29.82,WSW,252,2.0,9.0,37,0.00,,,0.00,weatherlink.com 1.10,2013-03-07 05:41:00,
2013-03-06 22:56:00,34.4,10.0,29.82,South,176,2.0,12.0,37,0.00,,,0.00,weatherlink.com 1.10,2013-03-07 05:56:00,
2013-03-06 23:11:00,34.7,11.0,29.81,West,267,2.0,12.0,37,0.00,,,0.00,weatherlink.com 1.10,2013-03-07 06:11:00,
2013-03-06 23:26:00,34.7,10.0,29.81,South,178,1.0,10.0,36,0.00,,,0.00,weatherlink.com 1.10,2013-03-07 06:26:00,
2013-03-06 23:42:00,34.3,10.0,29.81,WSW,238,3.0,10.0,37,0.00,,,0.00,weatherlink.com 1.10,2013-03-07 06:42:00,
2013-03-06 23:56:00,34.3,10.0,29.81,WSW,238,0.0,8.0,36,0.00,,,0.00,weatherlink.com 1.10,2013-03-07 06:56:00,